sensor_id;sensor_type;location;lat;lon;timestamp;P1;durP1;ratioP1;P2;durP2;ratioP2
49972;SDS011;65693;49.798;10.968;2023-02-28T00:01:22;3.70;;;2.13;;
49972;SDS011;65693;49.798;10.968;2023-02-28T00:03:49;3.83;;;2.22;;
49972;SDS011;65693;49.798;10.968;2023-02-28T00:06:16;2.90;;;2.10;;
49972;SDS011;65693;49.798;10.968;2023-02-28T00:08:44;3.15;;;1.90;;
49972;SDS011;65693;49.798;10.968;2023-02-28T00:11:14;4.25;;;2.20;;
49972;SDS011;65693;49.798;10.968;2023-02-28T00:13:44;3.28;;;1.90;;
49972;SDS011;65693;49.798;10.968;2023-02-28T00:16:12;3.60;;;2.13;;
49972;SDS011;65693;49.798;10.968;2023-02-28T00:18:41;3.38;;;2.08;;
49972;SDS011;65693;49.798;10.968;2023-02-28T00:21:09;3.97;;;2.30;;
49972;SDS011;65693;49.798;10.968;2023-02-28T00:23:37;3.50;;;2.10;;
49972;SDS011;65693;49.798;10.968;2023-02-28T00:26:06;3.30;;;1.98;;
49972;SDS011;65693;49.798;10.968;2023-02-28T00:28:33;3.05;;;1.70;;
49972;SDS011;65693;49.798;10.968;2023-02-28T00:31:00;3.95;;;2.05;;
49972;SDS011;65693;49.798;10.968;2023-02-28T00:33:26;3.08;;;2.13;;
49972;SDS011;65693;49.798;10.968;2023-02-28T00:36:00;2.65;;;1.90;;
49972;SDS011;65693;49.798;10.968;2023-02-28T00:38:28;3.33;;;2.10;;
49972;SDS011;65693;49.798;10.968;2023-02-28T00:40:55;3.05;;;2.08;;
49972;SDS011;65693;49.798;10.968;2023-02-28T00:43:21;3.33;;;2.05;;
49972;SDS011;65693;49.798;10.968;2023-02-28T00:45:49;3.92;;;2.15;;
49972;SDS011;65693;49.798;10.968;2023-02-28T00:48:15;3.65;;;2.10;;
49972;SDS011;65693;49.798;10.968;2023-02-28T00:50:48;3.50;;;2.10;;
49972;SDS011;65693;49.798;10.968;2023-02-28T00:53:17;3.78;;;1.92;;
49972;SDS011;65693;49.798;10.968;2023-02-28T00:55:44;3.08;;;1.98;;
49972;SDS011;65693;49.798;10.968;2023-02-28T00:58:12;3.58;;;2.28;;
49972;SDS011;65693;49.798;10.968;2023-02-28T01:00:41;3.47;;;2.20;;
49972;SDS011;65693;49.798;10.968;2023-02-28T01:03:16;3.40;;;1.90;;
49972;SDS011;65693;49.798;10.968;2023-02-28T01:05:42;3.70;;;2.20;;
49972;SDS011;65693;49.798;10.968;2023-02-28T01:08:09;3.22;;;2.35;;
49972;SDS011;65693;49.798;10.968;2023-02-28T01:10:35;2.78;;;1.67;;
49972;SDS011;65693;49.798;10.968;2023-02-28T01:13:03;3.00;;;2.15;;
49972;SDS011;65693;49.798;10.968;2023-02-28T01:15:31;3.55;;;2.10;;
49972;SDS011;65693;49.798;10.968;2023-02-28T01:17:58;2.97;;;1.90;;
49972;SDS011;65693;49.798;10.968;2023-02-28T01:20:28;3.75;;;2.10;;
49972;SDS011;65693;49.798;10.968;2023-02-28T01:22:55;3.08;;;1.85;;
49972;SDS011;65693;49.798;10.968;2023-02-28T01:25:21;2.97;;;2.00;;
49972;SDS011;65693;49.798;10.968;2023-02-28T01:27:48;3.60;;;2.03;;
49972;SDS011;65693;49.798;10.968;2023-02-28T01:30:14;3.35;;;1.88;;
49972;SDS011;65693;49.798;10.968;2023-02-28T01:32:40;3.65;;;1.83;;
49972;SDS011;65693;49.798;10.968;2023-02-28T01:35:08;4.55;;;2.00;;
49972;SDS011;65693;49.798;10.968;2023-02-28T01:37:50;2.83;;;1.77;;
49972;SDS011;65693;49.798;10.968;2023-02-28T01:40:16;3.70;;;2.00;;
49972;SDS011;65693;49.798;10.968;2023-02-28T01:42:43;2.83;;;1.90;;
49972;SDS011;65693;49.798;10.968;2023-02-28T01:45:16;3.05;;;2.00;;
49972;SDS011;65693;49.798;10.968;2023-02-28T01:47:47;3.85;;;2.72;;
49972;SDS011;65693;49.798;10.968;2023-02-28T01:50:18;3.33;;;2.13;;
49972;SDS011;65693;49.798;10.968;2023-02-28T01:52:49;3.60;;;2.15;;
49972;SDS011;65693;49.798;10.968;2023-02-28T01:55:18;3.53;;;2.28;;
49972;SDS011;65693;49.798;10.968;2023-02-28T01:57:50;3.10;;;1.90;;
49972;SDS011;65693;49.798;10.968;2023-02-28T02:00:22;3.08;;;1.88;;
49972;SDS011;65693;49.798;10.968;2023-02-28T02:02:56;3.60;;;1.90;;
49972;SDS011;65693;49.798;10.968;2023-02-28T02:05:25;3.45;;;2.00;;
49972;SDS011;65693;49.798;10.968;2023-02-28T02:07:55;3.00;;;1.90;;
49972;SDS011;65693;49.798;10.968;2023-02-28T02:10:25;3.47;;;2.10;;
49972;SDS011;65693;49.798;10.968;2023-02-28T02:13:08;2.83;;;1.90;;
49972;SDS011;65693;49.798;10.968;2023-02-28T02:15:48;3.08;;;1.75;;
49972;SDS011;65693;49.798;10.968;2023-02-28T02:18:30;4.72;;;2.17;;
49972;SDS011;65693;49.798;10.968;2023-02-28T02:27:25;3.35;;;1.98;;
49972;SDS011;65693;49.798;10.968;2023-02-28T02:30:27;2.42;;;1.75;;
49972;SDS011;65693;49.798;10.968;2023-02-28T02:33:15;2.92;;;1.95;;
49972;SDS011;65693;49.798;10.968;2023-02-28T02:36:22;2.90;;;1.70;;
49972;SDS011;65693;49.798;10.968;2023-02-28T02:38:51;2.70;;;2.10;;
49972;SDS011;65693;49.798;10.968;2023-02-28T02:41:23;3.20;;;1.80;;
49972;SDS011;65693;49.798;10.968;2023-02-28T02:43:54;3.05;;;2.00;;
49972;SDS011;65693;49.798;10.968;2023-02-28T02:46:27;2.88;;;1.80;;
49972;SDS011;65693;49.798;10.968;2023-02-28T02:48:57;2.92;;;2.10;;
49972;SDS011;65693;49.798;10.968;2023-02-28T02:51:32;3.70;;;2.03;;
49972;SDS011;65693;49.798;10.968;2023-02-28T02:54:02;3.70;;;1.95;;
49972;SDS011;65693;49.798;10.968;2023-02-28T02:56:33;3.42;;;2.17;;
49972;SDS011;65693;49.798;10.968;2023-02-28T02:59:01;2.80;;;1.80;;
49972;SDS011;65693;49.798;10.968;2023-02-28T03:01:30;3.58;;;1.90;;
49972;SDS011;65693;49.798;10.968;2023-02-28T03:03:59;2.67;;;1.67;;
49972;SDS011;65693;49.798;10.968;2023-02-28T03:06:41;3.88;;;2.20;;
49972;SDS011;65693;49.798;10.968;2023-02-28T03:09:10;3.28;;;1.92;;
49972;SDS011;65693;49.798;10.968;2023-02-28T03:11:37;3.83;;;2.10;;
49972;SDS011;65693;49.798;10.968;2023-02-28T03:14:11;3.25;;;2.10;;
49972;SDS011;65693;49.798;10.968;2023-02-28T03:17:02;3.67;;;2.08;;
49972;SDS011;65693;49.798;10.968;2023-02-28T03:19:53;3.17;;;1.90;;
49972;SDS011;65693;49.798;10.968;2023-02-28T03:22:36;4.20;;;2.17;;
49972;SDS011;65693;49.798;10.968;2023-02-28T03:25:16;2.90;;;1.92;;
49972;SDS011;65693;49.798;10.968;2023-02-28T03:27:48;2.83;;;1.80;;
49972;SDS011;65693;49.798;10.968;2023-02-28T03:30:26;3.22;;;1.70;;
49972;SDS011;65693;49.798;10.968;2023-02-28T03:32:58;3.00;;;1.65;;
49972;SDS011;65693;49.798;10.968;2023-02-28T03:35:32;2.10;;;1.60;;
49972;SDS011;65693;49.798;10.968;2023-02-28T03:38:17;3.15;;;2.08;;
49972;SDS011;65693;49.798;10.968;2023-02-28T03:40:48;3.97;;;2.13;;
49972;SDS011;65693;49.798;10.968;2023-02-28T03:43:22;4.18;;;2.10;;
49972;SDS011;65693;49.798;10.968;2023-02-28T03:45:54;5.53;;;2.40;;
49972;SDS011;65693;49.798;10.968;2023-02-28T03:48:25;2.95;;;1.95;;
49972;SDS011;65693;49.798;10.968;2023-02-28T03:50:58;3.95;;;2.00;;
49972;SDS011;65693;49.798;10.968;2023-02-28T03:53:29;4.32;;;2.10;;
49972;SDS011;65693;49.798;10.968;2023-02-28T03:56:01;2.80;;;1.98;;
49972;SDS011;65693;49.798;10.968;2023-02-28T03:58:35;3.53;;;2.30;;
49972;SDS011;65693;49.798;10.968;2023-02-28T04:01:09;2.95;;;1.92;;
49972;SDS011;65693;49.798;10.968;2023-02-28T04:03:41;4.32;;;2.10;;
49972;SDS011;65693;49.798;10.968;2023-02-28T04:06:13;3.47;;;2.10;;
49972;SDS011;65693;49.798;10.968;2023-02-28T04:08:44;2.58;;;1.60;;
49972;SDS011;65693;49.798;10.968;2023-02-28T04:11:17;4.20;;;2.28;;
49972;SDS011;65693;49.798;10.968;2023-02-28T04:13:47;2.63;;;1.80;;
49972;SDS011;65693;49.798;10.968;2023-02-28T04:16:14;3.40;;;2.17;;
49972;SDS011;65693;49.798;10.968;2023-02-28T04:18:40;4.15;;;2.20;;
49972;SDS011;65693;49.798;10.968;2023-02-28T04:21:08;3.55;;;2.00;;
49972;SDS011;65693;49.798;10.968;2023-02-28T04:23:36;4.22;;;2.50;;
49972;SDS011;65693;49.798;10.968;2023-02-28T04:26:11;2.97;;;1.83;;
49972;SDS011;65693;49.798;10.968;2023-02-28T04:28:42;3.33;;;2.10;;
49972;SDS011;65693;49.798;10.968;2023-02-28T04:31:16;3.20;;;1.90;;
49972;SDS011;65693;49.798;10.968;2023-02-28T04:33:42;3.97;;;2.30;;
49972;SDS011;65693;49.798;10.968;2023-02-28T04:36:09;3.65;;;2.05;;
49972;SDS011;65693;49.798;10.968;2023-02-28T04:38:37;4.53;;;2.20;;
49972;SDS011;65693;49.798;10.968;2023-02-28T04:41:08;2.90;;;2.00;;
49972;SDS011;65693;49.798;10.968;2023-02-28T04:43:35;3.13;;;2.00;;
49972;SDS011;65693;49.798;10.968;2023-02-28T04:46:04;2.65;;;1.92;;
49972;SDS011;65693;49.798;10.968;2023-02-28T04:48:33;3.42;;;2.17;;
49972;SDS011;65693;49.798;10.968;2023-02-28T04:51:11;4.10;;;2.22;;
49972;SDS011;65693;49.798;10.968;2023-02-28T04:53:46;3.15;;;2.10;;
49972;SDS011;65693;49.798;10.968;2023-02-28T04:56:17;3.03;;;2.10;;
49972;SDS011;65693;49.798;10.968;2023-02-28T04:58:45;4.32;;;2.58;;
49972;SDS011;65693;49.798;10.968;2023-02-28T05:01:17;3.60;;;2.05;;
49972;SDS011;65693;49.798;10.968;2023-02-28T05:03:47;3.80;;;2.10;;
49972;SDS011;65693;49.798;10.968;2023-02-28T05:06:15;3.42;;;1.92;;
49972;SDS011;65693;49.798;10.968;2023-02-28T05:08:44;5.38;;;2.10;;
49972;SDS011;65693;49.798;10.968;2023-02-28T05:11:21;3.60;;;2.45;;
49972;SDS011;65693;49.798;10.968;2023-02-28T05:13:50;3.45;;;2.53;;
49972;SDS011;65693;49.798;10.968;2023-02-28T05:16:17;3.75;;;2.13;;
49972;SDS011;65693;49.798;10.968;2023-02-28T05:18:44;4.57;;;2.28;;
49972;SDS011;65693;49.798;10.968;2023-02-28T05:21:22;3.92;;;2.10;;
49972;SDS011;65693;49.798;10.968;2023-02-28T05:23:52;3.70;;;2.05;;
49972;SDS011;65693;49.798;10.968;2023-02-28T05:26:26;3.45;;;2.20;;
49972;SDS011;65693;49.798;10.968;2023-02-28T05:28:53;3.42;;;2.20;;
49972;SDS011;65693;49.798;10.968;2023-02-28T05:31:21;8.60;;;6.60;;
49972;SDS011;65693;49.798;10.968;2023-02-28T05:33:50;8.35;;;4.78;;
49972;SDS011;65693;49.798;10.968;2023-02-28T05:36:18;4.88;;;3.85;;
49972;SDS011;65693;49.798;10.968;2023-02-28T05:38:45;5.57;;;4.00;;
49972;SDS011;65693;49.798;10.968;2023-02-28T05:41:12;5.45;;;3.85;;
49972;SDS011;65693;49.798;10.968;2023-02-28T05:43:41;4.90;;;3.45;;
49972;SDS011;65693;49.798;10.968;2023-02-28T05:46:07;5.28;;;3.78;;
49972;SDS011;65693;49.798;10.968;2023-02-28T05:48:45;5.22;;;3.65;;
49972;SDS011;65693;49.798;10.968;2023-02-28T05:51:13;6.15;;;3.95;;
49972;SDS011;65693;49.798;10.968;2023-02-28T05:53:40;5.32;;;4.00;;
49972;SDS011;65693;49.798;10.968;2023-02-28T05:56:09;5.47;;;3.50;;
49972;SDS011;65693;49.798;10.968;2023-02-28T05:58:38;6.50;;;3.92;;
49972;SDS011;65693;49.798;10.968;2023-02-28T06:04:01;4.30;;;3.28;;
49972;SDS011;65693;49.798;10.968;2023-02-28T06:06:41;5.25;;;3.40;;
49972;SDS011;65693;49.798;10.968;2023-02-28T06:09:08;5.75;;;3.60;;
49972;SDS011;65693;49.798;10.968;2023-02-28T06:11:37;5.60;;;3.45;;
49972;SDS011;65693;49.798;10.968;2023-02-28T06:14:04;6.45;;;3.75;;
49972;SDS011;65693;49.798;10.968;2023-02-28T06:16:43;6.25;;;3.90;;
49972;SDS011;65693;49.798;10.968;2023-02-28T06:19:14;6.10;;;3.40;;
49972;SDS011;65693;49.798;10.968;2023-02-28T06:21:42;5.25;;;3.42;;
49972;SDS011;65693;49.798;10.968;2023-02-28T06:24:12;7.00;;;3.95;;
49972;SDS011;65693;49.798;10.968;2023-02-28T06:26:40;6.03;;;3.80;;
49972;SDS011;65693;49.798;10.968;2023-02-28T06:29:10;4.75;;;3.45;;
49972;SDS011;65693;49.798;10.968;2023-02-28T06:31:47;5.90;;;4.22;;
49972;SDS011;65693;49.798;10.968;2023-02-28T06:34:17;5.88;;;3.92;;
49972;SDS011;65693;49.798;10.968;2023-02-28T06:36:46;5.20;;;3.38;;
49972;SDS011;65693;49.798;10.968;2023-02-28T06:39:12;6.28;;;3.75;;
49972;SDS011;65693;49.798;10.968;2023-02-28T06:41:38;5.80;;;3.38;;
49972;SDS011;65693;49.798;10.968;2023-02-28T06:44:10;6.05;;;3.38;;
49972;SDS011;65693;49.798;10.968;2023-02-28T06:46:41;6.18;;;3.88;;
49972;SDS011;65693;49.798;10.968;2023-02-28T06:49:15;4.97;;;3.00;;
49972;SDS011;65693;49.798;10.968;2023-02-28T06:51:43;5.85;;;3.72;;
49972;SDS011;65693;49.798;10.968;2023-02-28T06:54:12;7.10;;;4.18;;
49972;SDS011;65693;49.798;10.968;2023-02-28T06:56:42;6.18;;;3.80;;
49972;SDS011;65693;49.798;10.968;2023-02-28T06:59:09;6.07;;;3.90;;
49972;SDS011;65693;49.798;10.968;2023-02-28T07:01:37;6.45;;;3.80;;
49972;SDS011;65693;49.798;10.968;2023-02-28T07:04:07;5.93;;;3.58;;
49972;SDS011;65693;49.798;10.968;2023-02-28T07:06:43;6.50;;;4.05;;
49972;SDS011;65693;49.798;10.968;2023-02-28T07:09:13;5.25;;;3.47;;
49972;SDS011;65693;49.798;10.968;2023-02-28T07:11:44;5.32;;;3.90;;
49972;SDS011;65693;49.798;10.968;2023-02-28T07:14:10;4.75;;;3.50;;
49972;SDS011;65693;49.798;10.968;2023-02-28T07:16:36;7.47;;;3.53;;
49972;SDS011;65693;49.798;10.968;2023-02-28T07:19:03;5.60;;;3.75;;
49972;SDS011;65693;49.798;10.968;2023-02-28T07:21:29;5.80;;;3.75;;
49972;SDS011;65693;49.798;10.968;2023-02-28T07:23:59;5.47;;;3.67;;
49972;SDS011;65693;49.798;10.968;2023-02-28T07:26:26;5.63;;;3.70;;
49972;SDS011;65693;49.798;10.968;2023-02-28T07:28:53;6.50;;;4.00;;
49972;SDS011;65693;49.798;10.968;2023-02-28T07:31:22;6.25;;;4.30;;
49972;SDS011;65693;49.798;10.968;2023-02-28T07:33:49;5.82;;;3.60;;
49972;SDS011;65693;49.798;10.968;2023-02-28T07:36:19;7.20;;;4.15;;
49972;SDS011;65693;49.798;10.968;2023-02-28T07:38:48;6.57;;;3.58;;
49972;SDS011;65693;49.798;10.968;2023-02-28T07:41:20;5.95;;;4.15;;
49972;SDS011;65693;49.798;10.968;2023-02-28T07:43:48;5.60;;;3.72;;
49972;SDS011;65693;49.798;10.968;2023-02-28T07:46:15;6.07;;;3.65;;
49972;SDS011;65693;49.798;10.968;2023-02-28T07:48:42;7.60;;;3.70;;
49972;SDS011;65693;49.798;10.968;2023-02-28T07:51:10;5.40;;;3.33;;
49972;SDS011;65693;49.798;10.968;2023-02-28T07:53:38;5.88;;;4.03;;
49972;SDS011;65693;49.798;10.968;2023-02-28T07:56:05;7.68;;;4.47;;
49972;SDS011;65693;49.798;10.968;2023-02-28T07:58:51;5.32;;;3.65;;
49972;SDS011;65693;49.798;10.968;2023-02-28T08:01:17;6.38;;;4.10;;
49972;SDS011;65693;49.798;10.968;2023-02-28T08:03:45;5.72;;;4.00;;
49972;SDS011;65693;49.798;10.968;2023-02-28T08:06:19;6.47;;;4.15;;
49972;SDS011;65693;49.798;10.968;2023-02-28T08:08:47;6.60;;;4.30;;
49972;SDS011;65693;49.798;10.968;2023-02-28T08:11:15;5.47;;;3.50;;
49972;SDS011;65693;49.798;10.968;2023-02-28T08:13:43;5.57;;;3.70;;
49972;SDS011;65693;49.798;10.968;2023-02-28T08:16:11;6.28;;;4.50;;
49972;SDS011;65693;49.798;10.968;2023-02-28T08:18:42;7.55;;;4.28;;
49972;SDS011;65693;49.798;10.968;2023-02-28T08:21:08;5.40;;;4.05;;
49972;SDS011;65693;49.798;10.968;2023-02-28T08:23:36;6.78;;;4.03;;
49972;SDS011;65693;49.798;10.968;2023-02-28T08:26:02;5.78;;;4.03;;
49972;SDS011;65693;49.798;10.968;2023-02-28T08:28:31;6.03;;;3.90;;
49972;SDS011;65693;49.798;10.968;2023-02-28T08:31:00;5.90;;;3.92;;
49972;SDS011;65693;49.798;10.968;2023-02-28T08:33:35;5.45;;;3.90;;
49972;SDS011;65693;49.798;10.968;2023-02-28T08:36:06;5.82;;;3.97;;
49972;SDS011;65693;49.798;10.968;2023-02-28T08:38:43;6.80;;;4.45;;
49972;SDS011;65693;49.798;10.968;2023-02-28T08:41:13;5.85;;;4.10;;
49972;SDS011;65693;49.798;10.968;2023-02-28T08:43:40;5.97;;;3.85;;
49972;SDS011;65693;49.798;10.968;2023-02-28T08:46:11;7.95;;;4.47;;
49972;SDS011;65693;49.798;10.968;2023-02-28T08:48:44;5.65;;;4.13;;
49972;SDS011;65693;49.798;10.968;2023-02-28T08:51:15;6.32;;;4.20;;
49972;SDS011;65693;49.798;10.968;2023-02-28T08:53:52;5.43;;;4.10;;
49972;SDS011;65693;49.798;10.968;2023-02-28T08:56:23;6.80;;;4.10;;
49972;SDS011;65693;49.798;10.968;2023-02-28T08:58:53;6.28;;;4.10;;
49972;SDS011;65693;49.798;10.968;2023-02-28T09:01:23;6.97;;;4.20;;
49972;SDS011;65693;49.798;10.968;2023-02-28T09:03:53;6.70;;;4.15;;
49972;SDS011;65693;49.798;10.968;2023-02-28T09:06:30;6.80;;;3.83;;
49972;SDS011;65693;49.798;10.968;2023-02-28T09:09:06;6.70;;;4.18;;
49972;SDS011;65693;49.798;10.968;2023-02-28T09:11:36;6.57;;;4.60;;
49972;SDS011;65693;49.798;10.968;2023-02-28T09:14:02;6.03;;;4.40;;
49972;SDS011;65693;49.798;10.968;2023-02-28T09:16:45;5.50;;;4.07;;
49972;SDS011;65693;49.798;10.968;2023-02-28T09:19:14;7.00;;;4.28;;
49972;SDS011;65693;49.798;10.968;2023-02-28T09:21:43;6.13;;;4.00;;
49972;SDS011;65693;49.798;10.968;2023-02-28T09:24:10;5.90;;;4.20;;
49972;SDS011;65693;49.798;10.968;2023-02-28T09:26:41;5.60;;;3.78;;
49972;SDS011;65693;49.798;10.968;2023-02-28T09:29:09;6.63;;;4.35;;
49972;SDS011;65693;49.798;10.968;2023-02-28T09:31:43;6.10;;;4.05;;
49972;SDS011;65693;49.798;10.968;2023-02-28T09:34:18;7.07;;;4.15;;
49972;SDS011;65693;49.798;10.968;2023-02-28T09:36:46;6.18;;;4.10;;
49972;SDS011;65693;49.798;10.968;2023-02-28T09:39:16;7.40;;;4.43;;
49972;SDS011;65693;49.798;10.968;2023-02-28T09:41:47;6.60;;;4.10;;
49972;SDS011;65693;49.798;10.968;2023-02-28T09:44:20;7.10;;;4.07;;
49972;SDS011;65693;49.798;10.968;2023-02-28T09:47:05;6.28;;;4.00;;
49972;SDS011;65693;49.798;10.968;2023-02-28T09:49:38;6.82;;;4.35;;
49972;SDS011;65693;49.798;10.968;2023-02-28T09:52:17;6.20;;;4.10;;
49972;SDS011;65693;49.798;10.968;2023-02-28T09:54:45;6.30;;;4.15;;
49972;SDS011;65693;49.798;10.968;2023-02-28T09:57:17;7.45;;;4.32;;
49972;SDS011;65693;49.798;10.968;2023-02-28T09:59:51;7.40;;;4.63;;
49972;SDS011;65693;49.798;10.968;2023-02-28T10:05:36;6.03;;;4.53;;
49972;SDS011;65693;49.798;10.968;2023-02-28T10:08:11;5.80;;;4.25;;
49972;SDS011;65693;49.798;10.968;2023-02-28T10:10:44;5.90;;;4.10;;
49972;SDS011;65693;49.798;10.968;2023-02-28T10:13:19;5.93;;;3.83;;
49972;SDS011;65693;49.798;10.968;2023-02-28T10:15:55;6.28;;;3.97;;
49972;SDS011;65693;49.798;10.968;2023-02-28T10:18:30;6.10;;;3.90;;
49972;SDS011;65693;49.798;10.968;2023-02-28T10:21:04;6.32;;;4.10;;
49972;SDS011;65693;49.798;10.968;2023-02-28T10:23:34;6.00;;;3.92;;
49972;SDS011;65693;49.798;10.968;2023-02-28T10:26:12;6.85;;;4.20;;
49972;SDS011;65693;49.798;10.968;2023-02-28T10:28:41;6.40;;;4.15;;
49972;SDS011;65693;49.798;10.968;2023-02-28T10:31:11;6.00;;;4.07;;
49972;SDS011;65693;49.798;10.968;2023-02-28T10:33:57;6.60;;;4.35;;
49972;SDS011;65693;49.798;10.968;2023-02-28T10:36:26;6.18;;;3.85;;
49972;SDS011;65693;49.798;10.968;2023-02-28T10:38:57;6.40;;;3.92;;
49972;SDS011;65693;49.798;10.968;2023-02-28T10:41:28;6.53;;;4.38;;
49972;SDS011;65693;49.798;10.968;2023-02-28T10:44:19;6.57;;;4.63;;
49972;SDS011;65693;49.798;10.968;2023-02-28T10:46:50;5.95;;;4.18;;
49972;SDS011;65693;49.798;10.968;2023-02-28T10:49:25;5.57;;;4.13;;
49972;SDS011;65693;49.798;10.968;2023-02-28T10:51:55;7.53;;;4.35;;
49972;SDS011;65693;49.798;10.968;2023-02-28T10:54:24;7.22;;;4.07;;
49972;SDS011;65693;49.798;10.968;2023-02-28T10:57:15;6.00;;;4.10;;
49972;SDS011;65693;49.798;10.968;2023-02-28T10:59:50;5.57;;;4.20;;
49972;SDS011;65693;49.798;10.968;2023-02-28T11:02:32;5.85;;;4.20;;
49972;SDS011;65693;49.798;10.968;2023-02-28T11:08:03;6.47;;;4.43;;
49972;SDS011;65693;49.798;10.968;2023-02-28T11:10:36;5.97;;;4.22;;
49972;SDS011;65693;49.798;10.968;2023-02-28T11:13:06;5.72;;;3.88;;
49972;SDS011;65693;49.798;10.968;2023-02-28T11:15:45;6.97;;;4.68;;
49972;SDS011;65693;49.798;10.968;2023-02-28T11:18:21;7.13;;;4.32;;
49972;SDS011;65693;49.798;10.968;2023-02-28T11:20:55;6.93;;;4.38;;
49972;SDS011;65693;49.798;10.968;2023-02-28T11:23:25;6.28;;;4.47;;
49972;SDS011;65693;49.798;10.968;2023-02-28T11:25:57;6.13;;;4.00;;
49972;SDS011;65693;49.798;10.968;2023-02-28T11:28:28;6.45;;;4.35;;
49972;SDS011;65693;49.798;10.968;2023-02-28T11:31:03;6.22;;;4.45;;
49972;SDS011;65693;49.798;10.968;2023-02-28T11:33:49;6.60;;;4.07;;
49972;SDS011;65693;49.798;10.968;2023-02-28T11:36:32;6.88;;;4.80;;
49972;SDS011;65693;49.798;10.968;2023-02-28T11:39:11;6.25;;;3.95;;
49972;SDS011;65693;49.798;10.968;2023-02-28T11:41:49;7.38;;;4.88;;
49972;SDS011;65693;49.798;10.968;2023-02-28T11:44:56;6.95;;;4.60;;
49972;SDS011;65693;49.798;10.968;2023-02-28T11:47:40;7.10;;;4.88;;
49972;SDS011;65693;49.798;10.968;2023-02-28T11:50:21;6.47;;;4.28;;
49972;SDS011;65693;49.798;10.968;2023-02-28T11:53:17;6.10;;;4.30;;
49972;SDS011;65693;49.798;10.968;2023-02-28T11:55:57;6.95;;;4.85;;
49972;SDS011;65693;49.798;10.968;2023-02-28T11:58:33;5.97;;;4.70;;
49972;SDS011;65693;49.798;10.968;2023-02-28T12:01:14;6.60;;;4.60;;
49972;SDS011;65693;49.798;10.968;2023-02-28T12:03:57;6.28;;;4.22;;
49972;SDS011;65693;49.798;10.968;2023-02-28T12:06:32;7.53;;;4.30;;
49972;SDS011;65693;49.798;10.968;2023-02-28T12:09:24;5.68;;;3.90;;
49972;SDS011;65693;49.798;10.968;2023-02-28T12:12:36;6.22;;;4.60;;
49972;SDS011;65693;49.798;10.968;2023-02-28T12:15:25;5.75;;;4.20;;
49972;SDS011;65693;49.798;10.968;2023-02-28T12:18:05;6.03;;;4.45;;
49972;SDS011;65693;49.798;10.968;2023-02-28T12:20:59;6.72;;;4.57;;
49972;SDS011;65693;49.798;10.968;2023-02-28T12:26:47;7.15;;;4.43;;
49972;SDS011;65693;49.798;10.968;2023-02-28T12:29:21;6.65;;;4.50;;
49972;SDS011;65693;49.798;10.968;2023-02-28T12:31:56;6.50;;;4.40;;
49972;SDS011;65693;49.798;10.968;2023-02-28T12:34:32;6.28;;;3.83;;
49972;SDS011;65693;49.798;10.968;2023-02-28T12:37:13;5.93;;;4.15;;
49972;SDS011;65693;49.798;10.968;2023-02-28T12:39:48;7.15;;;4.90;;
49972;SDS011;65693;49.798;10.968;2023-02-28T12:42:22;6.22;;;4.03;;
49972;SDS011;65693;49.798;10.968;2023-02-28T12:44:58;6.13;;;4.53;;
49972;SDS011;65693;49.798;10.968;2023-02-28T12:47:30;6.15;;;4.10;;
49972;SDS011;65693;49.798;10.968;2023-02-28T12:49:58;6.95;;;4.13;;
49972;SDS011;65693;49.798;10.968;2023-02-28T12:52:31;6.20;;;4.25;;
49972;SDS011;65693;49.798;10.968;2023-02-28T12:55:11;6.82;;;4.10;;
49972;SDS011;65693;49.798;10.968;2023-02-28T12:58:01;7.03;;;4.60;;
49972;SDS011;65693;49.798;10.968;2023-02-28T13:00:37;7.07;;;4.40;;
49972;SDS011;65693;49.798;10.968;2023-02-28T13:03:20;7.43;;;4.80;;
49972;SDS011;65693;49.798;10.968;2023-02-28T13:06:16;5.47;;;4.40;;
49972;SDS011;65693;49.798;10.968;2023-02-28T13:08:59;7.28;;;4.75;;
49972;SDS011;65693;49.798;10.968;2023-02-28T13:11:49;6.68;;;4.60;;
49972;SDS011;65693;49.798;10.968;2023-02-28T13:14:20;7.35;;;4.82;;
49972;SDS011;65693;49.798;10.968;2023-02-28T13:16:51;6.18;;;4.50;;
49972;SDS011;65693;49.798;10.968;2023-02-28T13:19:25;6.68;;;4.65;;
49972;SDS011;65693;49.798;10.968;2023-02-28T13:21:56;6.30;;;4.63;;
49972;SDS011;65693;49.798;10.968;2023-02-28T13:24:38;7.47;;;4.43;;
49972;SDS011;65693;49.798;10.968;2023-02-28T13:27:22;6.25;;;4.38;;
49972;SDS011;65693;49.798;10.968;2023-02-28T13:36:40;6.53;;;4.60;;
49972;SDS011;65693;49.798;10.968;2023-02-28T13:42:34;6.22;;;4.45;;
49972;SDS011;65693;49.798;10.968;2023-02-28T13:45:22;7.55;;;4.53;;
49972;SDS011;65693;49.798;10.968;2023-02-28T13:47:53;6.95;;;4.60;;
49972;SDS011;65693;49.798;10.968;2023-02-28T13:50:27;6.95;;;4.50;;
49972;SDS011;65693;49.798;10.968;2023-02-28T13:53:03;7.05;;;4.97;;
49972;SDS011;65693;49.798;10.968;2023-02-28T13:55:56;6.47;;;4.28;;
49972;SDS011;65693;49.798;10.968;2023-02-28T13:58:49;7.32;;;4.45;;
49972;SDS011;65693;49.798;10.968;2023-02-28T14:01:27;6.63;;;4.28;;
49972;SDS011;65693;49.798;10.968;2023-02-28T14:04:14;6.03;;;4.15;;
49972;SDS011;65693;49.798;10.968;2023-02-28T14:07:02;6.88;;;4.40;;
49972;SDS011;65693;49.798;10.968;2023-02-28T14:09:33;5.65;;;4.15;;
49972;SDS011;65693;49.798;10.968;2023-02-28T14:18:17;7.47;;;4.55;;
49972;SDS011;65693;49.798;10.968;2023-02-28T14:24:01;6.05;;;4.50;;
49972;SDS011;65693;49.798;10.968;2023-02-28T14:30:01;5.47;;;4.05;;
49972;SDS011;65693;49.798;10.968;2023-02-28T14:32:44;6.45;;;4.28;;
49972;SDS011;65693;49.798;10.968;2023-02-28T14:35:35;6.72;;;4.13;;
49972;SDS011;65693;49.798;10.968;2023-02-28T14:38:27;6.85;;;4.35;;
49972;SDS011;65693;49.798;10.968;2023-02-28T14:41:00;6.15;;;4.60;;
49972;SDS011;65693;49.798;10.968;2023-02-28T14:43:47;6.85;;;4.40;;
49972;SDS011;65693;49.798;10.968;2023-02-28T14:46:16;7.30;;;4.22;;
49972;SDS011;65693;49.798;10.968;2023-02-28T14:48:45;7.07;;;4.57;;
49972;SDS011;65693;49.798;10.968;2023-02-28T14:51:13;7.03;;;3.85;;
49972;SDS011;65693;49.798;10.968;2023-02-28T14:53:56;6.03;;;4.30;;
49972;SDS011;65693;49.798;10.968;2023-02-28T14:56:27;5.90;;;4.20;;
49972;SDS011;65693;49.798;10.968;2023-02-28T14:59:00;6.35;;;4.47;;
49972;SDS011;65693;49.798;10.968;2023-02-28T15:01:29;7.30;;;4.78;;
49972;SDS011;65693;49.798;10.968;2023-02-28T15:03:58;6.25;;;4.28;;
49972;SDS011;65693;49.798;10.968;2023-02-28T15:06:31;6.50;;;4.25;;
49972;SDS011;65693;49.798;10.968;2023-02-28T15:09:20;7.95;;;4.60;;
49972;SDS011;65693;49.798;10.968;2023-02-28T15:11:50;8.18;;;4.57;;
49972;SDS011;65693;49.798;10.968;2023-02-28T15:14:18;6.50;;;4.90;;
49972;SDS011;65693;49.798;10.968;2023-02-28T15:16:49;5.70;;;4.60;;
49972;SDS011;65693;49.798;10.968;2023-02-28T15:19:25;8.10;;;4.68;;
49972;SDS011;65693;49.798;10.968;2023-02-28T15:22:02;6.47;;;4.30;;
49972;SDS011;65693;49.798;10.968;2023-02-28T15:24:42;7.40;;;4.47;;
49972;SDS011;65693;49.798;10.968;2023-02-28T15:27:19;7.45;;;4.00;;
49972;SDS011;65693;49.798;10.968;2023-02-28T15:29:49;6.60;;;4.18;;
49972;SDS011;65693;49.798;10.968;2023-02-28T15:32:23;6.72;;;4.20;;
49972;SDS011;65693;49.798;10.968;2023-02-28T15:34:53;6.45;;;4.55;;
49972;SDS011;65693;49.798;10.968;2023-02-28T15:37:27;6.40;;;4.40;;
49972;SDS011;65693;49.798;10.968;2023-02-28T15:39:58;6.25;;;4.10;;
49972;SDS011;65693;49.798;10.968;2023-02-28T15:42:34;6.63;;;4.18;;
49972;SDS011;65693;49.798;10.968;2023-02-28T15:45:05;5.82;;;4.07;;
49972;SDS011;65693;49.798;10.968;2023-02-28T15:47:59;6.72;;;4.10;;
49972;SDS011;65693;49.798;10.968;2023-02-28T15:50:27;6.90;;;4.78;;